createdAt,value
2023-04-18T00:02:26.109Z,102601.94
2023-04-18T00:04:54.485Z,102601.25
2023-04-18T00:07:23.738Z,102597.84
2023-04-18T00:09:51.448Z,102592.56
2023-04-18T00:12:19.202Z,102588.06
2023-04-18T00:14:46.894Z,102592.66
2023-04-18T00:17:14.672Z,102608.63
2023-04-18T00:19:43.279Z,102584.19
2023-04-18T00:22:11.173Z,102583.50
2023-04-18T00:24:41.044Z,102567.91
2023-04-18T00:27:08.791Z,102574.31
2023-04-18T00:29:36.534Z,102581.69
2023-04-18T00:32:04.272Z,102571.13
2023-04-18T00:34:31.988Z,102566.78
2023-04-18T00:36:59.752Z,102575.34
2023-04-18T00:39:27.535Z,102575.44
2023-04-18T00:41:56.628Z,102579.72
2023-04-18T00:44:24.365Z,102585.72
2023-04-18T00:46:52.075Z,102603.16
2023-04-18T00:49:20.177Z,102606.31
2023-04-18T00:51:48.639Z,102581.66
2023-04-18T00:54:18.953Z,102583.00
2023-04-18T00:56:46.878Z,102583.09
2023-04-18T00:59:15.970Z,102572.81
2023-04-18T01:01:45.154Z,102562.09
2023-04-18T01:04:13.529Z,102564.50
2023-04-18T01:06:43.818Z,102547.72
2023-04-18T01:09:11.826Z,102550.97
2023-04-18T01:11:39.535Z,102559.44
2023-04-18T01:14:08.838Z,102577.38
2023-04-18T01:16:38.929Z,102570.81
2023-04-18T01:19:06.896Z,102568.06
2023-04-18T01:21:37.199Z,102602.84
2023-04-18T01:24:11.868Z,102584.88
2023-04-18T01:26:40.028Z,102610.56
2023-04-18T01:29:08.182Z,102604.06
2023-04-18T01:31:37.048Z,102613.28
2023-04-18T01:34:04.823Z,102617.69
2023-04-18T01:36:33.032Z,102632.50
2023-04-18T01:39:01.104Z,102630.88
2023-04-18T01:41:32.711Z,102649.88
2023-04-18T01:44:01.056Z,102646.00
2023-04-18T01:46:29.159Z,102643.53
2023-04-18T01:48:56.980Z,102645.16
2023-04-18T01:51:24.862Z,102636.94
2023-04-18T01:53:52.659Z,102658.94
2023-04-18T01:56:20.933Z,102635.78
2023-04-18T01:58:50.054Z,102648.50
2023-04-18T02:01:17.762Z,102646.34
2023-04-18T02:03:45.775Z,102649.50
2023-04-18T02:06:13.882Z,102658.09
2023-04-18T02:08:41.587Z,102674.03
2023-04-18T02:11:09.301Z,102680.06
2023-04-18T02:13:37.015Z,102657.25
2023-04-18T02:16:06.905Z,102645.94
2023-04-18T02:18:35.326Z,102671.00
2023-04-18T02:21:03.108Z,102672.84
2023-04-18T02:23:30.798Z,102665.13
2023-04-18T02:25:58.516Z,102683.81
2023-04-18T02:28:26.239Z,102696.38
2023-04-18T02:30:53.956Z,102701.00
2023-04-18T02:33:23.040Z,102701.50
2023-04-18T02:35:50.785Z,102704.34
2023-04-18T02:38:18.535Z,102703.81
2023-04-18T02:40:46.313Z,102708.63
2023-04-18T02:43:14.028Z,102709.47
2023-04-18T02:45:41.836Z,102711.97
2023-04-18T02:48:09.615Z,102705.44
2023-04-18T02:50:38.812Z,102713.41
2023-04-18T02:53:06.534Z,102707.69
2023-04-18T02:55:34.418Z,102694.06
2023-04-18T02:58:02.104Z,102693.91
2023-04-18T03:00:30.170Z,102705.00
2023-04-18T03:02:58.066Z,102709.44
2023-04-18T03:05:26.206Z,102739.38
2023-04-18T03:07:55.300Z,102733.06
2023-04-18T03:10:23.049Z,102716.13
2023-04-18T03:12:50.772Z,102719.59
2023-04-18T03:15:18.662Z,102709.75
2023-04-18T03:17:46.412Z,102718.31
2023-04-18T03:20:14.465Z,102748.97
2023-04-18T03:22:42.208Z,102748.75
2023-04-18T03:25:11.465Z,102751.50
2023-04-18T03:27:39.244Z,102745.47
2023-04-18T03:30:08.268Z,102768.94
2023-04-18T03:32:36.431Z,102790.94
2023-04-18T03:35:04.602Z,102783.66
2023-04-18T03:37:32.322Z,102788.88
2023-04-18T03:40:00.044Z,102784.75
2023-04-18T03:42:29.184Z,102800.38
2023-04-18T03:44:56.907Z,102786.50
2023-04-18T03:47:24.714Z,102775.69
2023-04-18T03:49:54.257Z,102785.50
2023-04-18T03:52:21.989Z,102778.13
2023-04-18T03:54:49.708Z,102780.31
2023-04-18T03:57:17.444Z,102806.13
2023-04-18T03:59:47.920Z,102803.38
2023-04-18T04:02:15.938Z,102817.91
2023-04-18T04:04:43.905Z,102791.44
2023-04-18T04:07:12.010Z,102788.09
2023-04-18T04:09:39.720Z,102788.38
2023-04-18T04:12:07.565Z,102780.75
2023-04-18T04:14:35.311Z,102776.84
2023-04-18T04:17:04.442Z,102809.28
2023-04-18T04:19:32.181Z,102808.00
2023-04-18T04:21:59.883Z,102798.66
2023-04-18T04:24:29.098Z,102787.09
2023-04-18T04:26:57.154Z,102771.19
2023-04-18T04:29:24.872Z,102768.94
2023-04-18T04:31:52.837Z,102781.56
2023-04-18T04:34:22.059Z,102813.59
2023-04-18T04:36:51.163Z,102814.56
2023-04-18T04:39:18.892Z,102829.53
2023-04-18T04:41:47.174Z,102837.88
2023-04-18T04:44:17.889Z,102821.09
2023-04-18T04:46:45.822Z,102832.78
2023-04-18T04:49:13.654Z,102841.94
2023-04-18T04:51:43.020Z,102859.00
2023-04-18T04:54:10.781Z,102858.28
2023-04-18T04:56:38.488Z,102848.66
2023-04-18T04:59:06.182Z,102839.53
2023-04-18T05:01:34.004Z,102828.13
2023-04-18T05:04:01.906Z,102840.88
2023-04-18T05:06:29.853Z,102838.84
2023-04-18T05:09:00.894Z,102849.44
2023-04-18T05:11:28.672Z,102818.06
2023-04-18T05:13:56.394Z,102823.66
2023-04-18T05:16:24.229Z,102832.81
2023-04-18T05:18:51.978Z,102836.19
2023-04-18T05:21:19.747Z,102806.88
2023-04-18T05:23:47.472Z,102805.34
2023-04-18T05:26:16.550Z,102824.00
2023-04-18T05:28:44.300Z,102812.66
2023-04-18T05:31:12.101Z,102801.63
2023-04-18T05:33:39.849Z,102826.09
2023-04-18T05:36:08.697Z,102834.09
2023-04-18T05:38:36.834Z,102841.66
2023-04-18T05:41:04.572Z,102847.31
2023-04-18T05:43:33.816Z,102863.13
2023-04-18T05:46:01.656Z,102845.78
2023-04-18T05:48:29.492Z,102814.59
2023-04-18T05:50:57.850Z,102826.75
2023-04-18T05:53:25.600Z,102842.72
2023-04-18T05:55:53.517Z,102864.34
2023-04-18T05:58:21.268Z,102875.13
2023-04-18T06:00:50.331Z,102886.31
2023-04-18T06:03:18.313Z,102857.84
2023-04-18T06:05:46.293Z,102875.38
2023-04-18T06:08:14.046Z,102873.50
2023-04-18T06:10:41.765Z,102862.72
2023-04-18T06:13:09.553Z,102853.22
2023-04-18T06:15:37.261Z,102837.44
2023-04-18T06:18:06.429Z,102832.22
2023-04-18T06:20:34.191Z,102844.09
2023-04-18T06:23:01.909Z,102839.28
2023-04-18T06:25:29.657Z,102852.34
2023-04-18T06:27:57.376Z,102853.63
2023-04-18T06:30:25.423Z,102849.59
2023-04-18T06:32:53.252Z,102848.94
2023-04-18T06:35:23.649Z,102851.66
2023-04-18T06:37:53.429Z,102856.59
2023-04-18T06:40:21.143Z,102869.47
2023-04-18T06:42:48.890Z,102881.31
2023-04-18T06:45:16.665Z,102864.47
2023-04-18T06:47:44.519Z,102880.06
2023-04-18T06:50:12.559Z,102895.63
2023-04-18T06:52:44.471Z,102887.09
2023-04-18T06:55:13.155Z,102883.06
2023-04-18T06:57:42.221Z,102890.00
2023-04-18T07:00:11.481Z,102900.88
2023-04-18T07:02:40.447Z,102912.88
2023-04-18T07:05:09.057Z,102914.78
2023-04-18T07:07:36.810Z,102930.63
2023-04-18T07:10:07.184Z,102940.53
2023-04-18T07:12:34.905Z,102938.38
2023-04-18T07:15:03.494Z,102912.41
2023-04-18T07:17:31.457Z,102918.84
2023-04-18T07:19:59.808Z,102920.97
2023-04-18T07:22:27.531Z,102928.13
2023-04-18T07:24:55.287Z,102917.34
2023-04-18T07:27:24.370Z,102919.94
2023-04-18T07:29:52.078Z,102935.16
2023-04-18T07:32:19.869Z,102921.13
2023-04-18T07:34:48.437Z,102944.91
2023-04-18T07:37:17.534Z,102949.31
2023-04-18T07:39:45.291Z,102971.50
2023-04-18T07:42:13.165Z,102966.22
2023-04-18T07:44:42.303Z,102961.97
2023-04-18T07:47:11.100Z,102971.22
2023-04-18T07:49:39.439Z,102999.19
2023-04-18T07:52:07.224Z,102982.72
2023-04-18T07:54:34.971Z,103003.28
2023-04-18T07:57:02.665Z,102992.66
2023-04-18T07:59:32.209Z,102986.56
2023-04-18T08:02:01.465Z,102985.31
2023-04-18T08:04:30.432Z,102951.06
2023-04-18T08:06:58.521Z,102953.28
2023-04-18T08:09:26.260Z,102972.91
2023-04-18T08:11:55.193Z,102976.53
2023-04-18T08:14:22.983Z,102979.59
2023-04-18T08:16:52.095Z,102987.78
2023-04-18T08:19:21.277Z,102999.38
2023-04-18T08:21:52.351Z,103024.22
2023-04-18T08:24:20.137Z,103017.47
2023-04-18T08:26:47.908Z,103011.56
2023-04-18T08:29:15.997Z,103003.69
2023-04-18T08:31:43.912Z,102989.41
2023-04-18T08:34:11.670Z,103003.19
2023-04-18T08:36:40.756Z,103014.16
2023-04-18T08:39:08.581Z,103002.13
2023-04-18T08:41:38.672Z,103034.44
2023-04-18T08:44:07.622Z,103035.59
2023-04-18T08:46:35.816Z,103034.50
2023-04-18T08:49:04.746Z,103024.69
2023-04-18T08:51:33.918Z,103019.78
2023-04-18T08:54:04.634Z,103033.03
2023-04-18T08:56:32.407Z,103040.44
2023-04-18T08:59:00.703Z,103049.03
2023-04-18T09:01:50.601Z,103050.28
2023-04-18T09:04:34.337Z,103045.44
2023-04-18T09:07:02.252Z,103057.69
2023-04-18T09:09:41.526Z,103059.28
2023-04-18T09:12:11.220Z,103059.56
2023-04-18T09:14:42.927Z,103072.16
2023-04-18T09:17:13.037Z,103068.47
2023-04-18T09:19:48.794Z,103047.78
2023-04-18T09:22:17.413Z,103050.28
2023-04-18T09:24:57.698Z,103066.44
2023-04-18T09:27:25.882Z,103084.44
2023-04-18T09:29:56.528Z,103075.03
2023-04-18T09:32:27.367Z,103082.84
2023-04-18T09:34:58.006Z,103065.66
2023-04-18T09:37:26.601Z,103072.00
2023-04-18T09:39:56.396Z,103076.47
2023-04-18T09:42:26.125Z,103066.22
2023-04-18T09:45:05.142Z,103071.34
2023-04-18T09:47:35.026Z,103094.84
2023-04-18T09:50:04.310Z,103092.53
2023-04-18T09:52:35.212Z,103089.63
2023-04-18T09:55:06.764Z,103090.19
2023-04-18T09:57:35.790Z,103080.63
2023-04-18T10:00:13.982Z,103092.19
2023-04-18T10:02:50.736Z,103086.34
2023-04-18T10:05:21.210Z,103072.34
2023-04-18T10:07:50.886Z,103072.06
2023-04-18T10:10:20.315Z,103091.34
2023-04-18T10:12:50.751Z,103093.41
2023-04-18T10:15:20.927Z,103094.47
2023-04-18T10:18:03.650Z,103096.63
2023-04-18T10:20:34.890Z,103095.50
2023-04-18T10:23:37.235Z,103100.53
2023-04-18T10:26:07.228Z,103105.00
2023-04-18T10:28:53.275Z,103103.03
2023-04-18T10:31:23.096Z,103114.00
2023-04-18T10:34:03.990Z,103103.06
2023-04-18T10:36:33.512Z,103101.53
2023-04-18T10:39:03.922Z,103101.88
2023-04-18T10:41:33.872Z,103104.31
2023-04-18T10:44:19.401Z,103099.72
2023-04-18T10:47:21.756Z,103095.34
2023-04-18T10:49:58.868Z,103096.00
2023-04-18T10:52:27.641Z,103102.91
2023-04-18T10:55:13.942Z,103097.38
2023-04-18T10:57:44.822Z,103088.94
2023-04-18T11:00:15.147Z,103095.19
2023-04-18T11:02:50.136Z,103085.28
2023-04-18T11:05:23.238Z,103084.47
2023-04-18T11:07:51.320Z,103083.88
2023-04-18T11:10:21.072Z,103080.16
2023-04-18T11:12:50.648Z,103083.97
2023-04-18T11:15:21.904Z,103082.88
2023-04-18T11:17:58.041Z,103083.66
2023-04-18T11:20:26.558Z,103084.56
2023-04-18T11:22:56.184Z,103080.00
2023-04-18T11:25:26.886Z,103090.91
2023-04-18T11:27:56.334Z,103078.66
2023-04-18T11:30:24.172Z,103081.97
2023-04-18T11:32:52.561Z,103068.09
2023-04-18T11:35:20.366Z,103064.19
2023-04-18T11:37:50.031Z,103080.03
2023-04-18T11:40:17.942Z,103071.91
2023-04-18T11:42:45.754Z,103052.91
2023-04-18T11:45:15.979Z,103069.19
2023-04-18T11:47:46.759Z,103071.25
2023-04-18T11:50:14.660Z,103075.34
2023-04-18T11:52:43.433Z,103072.63
2023-04-18T11:55:14.115Z,103069.00
2023-04-18T11:57:42.550Z,103067.91
2023-04-18T12:00:12.303Z,103070.03
2023-04-18T12:02:43.579Z,103061.25
2023-04-18T12:05:11.872Z,103067.06
2023-04-18T12:07:41.520Z,103058.13
2023-04-18T12:10:10.907Z,103064.59
2023-04-18T12:12:38.650Z,103062.03
2023-04-18T12:15:12.279Z,103064.25
2023-04-18T12:17:45.176Z,103068.03
2023-04-18T12:20:13.736Z,103070.84
2023-04-18T12:22:43.769Z,103061.34
2023-04-18T12:25:27.557Z,103055.13
2023-04-18T12:27:58.029Z,103057.44
2023-04-18T12:30:28.152Z,103049.97
2023-04-18T12:32:59.945Z,103040.97
2023-04-18T12:35:28.856Z,103044.38
2023-04-18T12:37:57.903Z,103053.78
2023-04-18T12:40:26.770Z,103040.50
2023-04-18T12:42:55.485Z,103052.28
2023-04-18T12:45:25.070Z,103054.16
2023-04-18T12:47:53.569Z,103057.09
2023-04-18T12:50:24.443Z,103060.22
2023-04-18T12:52:53.523Z,103062.22
2023-04-18T12:55:21.814Z,103049.34
2023-04-18T12:57:54.129Z,103041.09
2023-04-18T13:00:23.424Z,103045.50
2023-04-18T13:02:53.562Z,103043.50
2023-04-18T13:05:25.450Z,103040.19
2023-04-18T13:08:04.788Z,103050.47
2023-04-18T13:10:40.902Z,103046.63
2023-04-18T13:13:08.612Z,103051.00
2023-04-18T13:15:36.755Z,103052.56
2023-04-18T13:18:06.655Z,103059.25
2023-04-18T13:20:36.508Z,103048.47
2023-04-18T13:23:04.371Z,103046.63
2023-04-18T13:25:32.366Z,103058.03
2023-04-18T13:28:00.953Z,103059.34
2023-04-18T13:30:28.949Z,103060.50
2023-04-18T13:32:56.772Z,103050.88
2023-04-18T13:35:24.659Z,103049.19
2023-04-18T13:37:53.774Z,103040.81
2023-04-18T13:40:21.662Z,103051.00
2023-04-18T13:42:49.366Z,103054.28
2023-04-18T13:45:17.130Z,103042.28
2023-04-18T13:47:44.908Z,103055.38
2023-04-18T13:50:12.628Z,103053.31
2023-04-18T13:52:40.353Z,103054.53
2023-04-18T13:55:12.398Z,103062.25
2023-04-18T13:57:41.193Z,103066.59
2023-04-18T14:00:13.655Z,103052.03
2023-04-18T14:02:41.914Z,103055.63
2023-04-18T14:05:10.675Z,103065.16
2023-04-18T14:07:38.772Z,103060.44
2023-04-18T14:10:07.542Z,103060.28
2023-04-18T14:12:36.699Z,103038.50
2023-04-18T14:15:04.997Z,103041.56
2023-04-18T14:17:32.773Z,103046.81
2023-04-18T14:20:02.318Z,103055.13
2023-04-18T14:22:30.269Z,103055.44
2023-04-18T14:24:57.997Z,103055.28
2023-04-18T14:27:26.170Z,103057.75
2023-04-18T14:29:55.340Z,103060.13
2023-04-18T14:32:23.100Z,103069.78
2023-04-18T14:34:50.835Z,103058.16
2023-04-18T14:37:18.570Z,103062.59
2023-04-18T14:39:46.547Z,103063.34
2023-04-18T14:42:14.247Z,103055.03
2023-04-18T14:44:42.373Z,103057.03
2023-04-18T14:47:11.584Z,103068.72
2023-04-18T14:49:39.471Z,103057.66
2023-04-18T14:52:07.172Z,103064.03
2023-04-18T14:54:34.878Z,103056.69
2023-04-18T14:57:02.618Z,103061.03
2023-04-18T14:59:30.359Z,103062.78
2023-04-18T15:01:58.144Z,103052.56
2023-04-18T15:04:27.468Z,103049.78
2023-04-18T15:06:55.342Z,103053.41
2023-04-18T15:09:23.246Z,103064.44
2023-04-18T15:11:51.754Z,103063.28
2023-04-18T15:14:19.845Z,103060.06
2023-04-18T15:16:50.370Z,103053.94
2023-04-18T15:19:18.262Z,103056.22
2023-04-18T15:21:47.348Z,103063.16
2023-04-18T15:24:15.941Z,103066.03
2023-04-18T15:26:44.080Z,103060.91
2023-04-18T15:29:11.804Z,103047.34
2023-04-18T15:31:39.569Z,103049.16
2023-04-18T15:34:08.110Z,103051.03
2023-04-18T15:36:36.733Z,103050.88
2023-04-18T15:39:06.704Z,103054.41
2023-04-18T15:41:36.194Z,103072.59
2023-04-18T15:44:06.584Z,103066.63
2023-04-18T15:46:36.107Z,103067.28
2023-04-18T15:49:03.864Z,103065.56
2023-04-18T15:51:31.616Z,103060.47
2023-04-18T15:53:59.326Z,103067.72
2023-04-18T15:56:28.414Z,103072.16
2023-04-18T15:58:58.150Z,103071.75
2023-04-18T16:01:25.933Z,103085.97
2023-04-18T16:03:53.807Z,103074.50
2023-04-18T16:06:23.336Z,103071.38
2023-04-18T16:08:51.155Z,103080.66
2023-04-18T16:11:21.320Z,103070.69
2023-04-18T16:13:50.409Z,103073.81
2023-04-18T16:16:18.231Z,103070.47
2023-04-18T16:18:46.062Z,103076.66
2023-04-18T16:21:15.385Z,103078.47
2023-04-18T16:23:43.160Z,103080.47
2023-04-18T16:26:10.928Z,103082.16
2023-04-18T16:28:38.970Z,103081.34
2023-04-18T16:31:08.141Z,103085.94
2023-04-18T16:33:36.165Z,103101.50
2023-04-18T16:36:04.496Z,103097.50
2023-04-18T16:38:32.272Z,103096.94
2023-04-18T16:41:01.530Z,103089.94
2023-04-18T16:43:30.959Z,103089.94
2023-04-18T16:46:00.326Z,103088.78
2023-04-18T16:48:30.101Z,103091.63
2023-04-18T16:50:58.151Z,103089.41
2023-04-18T16:53:26.480Z,103095.47
2023-04-18T16:55:54.609Z,103095.47
2023-04-18T16:58:23.470Z,103094.22
2023-04-18T17:00:52.551Z,103099.72
2023-04-18T17:03:20.409Z,103089.25
2023-04-18T17:05:49.639Z,103095.50
2023-04-18T17:08:17.773Z,103096.81
2023-04-18T17:10:45.600Z,103095.88
2023-04-18T17:13:13.322Z,103096.38
2023-04-18T17:15:41.349Z,103089.16
2023-04-18T17:18:09.147Z,103092.63
2023-04-18T17:20:37.387Z,103090.50
2023-04-18T17:23:06.579Z,103092.81
2023-04-18T17:25:34.361Z,103097.84
2023-04-18T17:28:02.341Z,103098.41
2023-04-18T17:30:30.441Z,103101.78
2023-04-18T17:32:58.240Z,103102.50
2023-04-18T17:35:26.099Z,103107.91
2023-04-18T17:37:53.885Z,103103.16
2023-04-18T17:40:23.089Z,103109.75
2023-04-18T17:42:50.824Z,103104.91
2023-04-18T17:45:20.453Z,103112.25
2023-04-18T17:47:49.521Z,103123.31
2023-04-18T17:50:17.329Z,103115.81
2023-04-18T17:52:46.445Z,103124.97
2023-04-18T17:55:14.459Z,103124.94
2023-04-18T17:57:43.562Z,103128.06
2023-04-18T18:00:13.747Z,103133.31
2023-04-18T18:02:42.815Z,103136.03
2023-04-18T18:05:12.991Z,103142.44
2023-04-18T18:07:43.139Z,103143.81
2023-04-18T18:10:12.067Z,103148.47
2023-04-18T18:12:40.664Z,103161.19
2023-04-18T18:15:10.886Z,103154.66
2023-04-18T18:17:38.748Z,103156.44
2023-04-18T18:20:09.877Z,103166.16
2023-04-18T18:22:38.098Z,103171.84
2023-04-18T18:25:06.440Z,103177.63
2023-04-18T18:27:34.260Z,103178.81
2023-04-18T18:30:01.966Z,103172.44
2023-04-18T18:32:31.140Z,103185.28
2023-04-18T18:34:58.960Z,103187.78
2023-04-18T18:37:27.258Z,103199.31
2023-04-18T18:39:55.415Z,103182.81
2023-04-18T18:42:23.169Z,103201.91
2023-04-18T18:44:50.978Z,103198.25
2023-04-18T18:47:19.268Z,103200.22
2023-04-18T18:49:48.728Z,103204.03
2023-04-18T18:52:16.897Z,103210.53
2023-04-18T18:54:44.630Z,103208.59
2023-04-18T18:57:12.374Z,103212.97
2023-04-18T18:59:40.088Z,103212.09
2023-04-18T19:02:08.037Z,103206.63
2023-04-18T19:04:35.878Z,103202.06
2023-04-18T19:07:05.953Z,103200.63
2023-04-18T19:09:33.766Z,103205.06
2023-04-18T19:12:01.534Z,103204.72
2023-04-18T19:14:29.492Z,103206.84
2023-04-18T19:16:58.018Z,103209.09
2023-04-18T19:19:25.983Z,103215.13
2023-04-18T19:21:53.753Z,103216.88
2023-04-18T19:24:22.927Z,103217.78
2023-04-18T19:26:50.852Z,103208.81
2023-04-18T19:29:18.643Z,103219.50
2023-04-18T19:31:46.428Z,103219.25
2023-04-18T19:34:14.291Z,103216.94
2023-04-18T19:36:41.995Z,103219.09
2023-04-18T19:39:09.734Z,103219.41
2023-04-18T19:41:38.828Z,103219.22
2023-04-18T19:44:06.592Z,103228.47
2023-04-18T19:46:34.438Z,103222.09
2023-04-18T19:49:02.295Z,103224.72
2023-04-18T19:51:30.052Z,103221.91
2023-04-18T19:53:57.798Z,103222.97
2023-04-18T19:56:25.622Z,103230.28
2023-04-18T19:58:55.181Z,103228.69
2023-04-18T20:01:24.123Z,103225.31
2023-04-18T20:03:52.317Z,103234.41
2023-04-18T20:06:20.402Z,103230.22
2023-04-18T20:08:48.298Z,103236.88
2023-04-18T20:11:16.150Z,103229.22
2023-04-18T20:13:43.902Z,103226.19
2023-04-18T20:16:13.207Z,103229.78
2023-04-18T20:18:42.189Z,103230.28
2023-04-18T20:21:11.005Z,103235.81
2023-04-18T20:23:40.455Z,103236.84
2023-04-18T20:26:08.236Z,103233.31
2023-04-18T20:28:36.257Z,103240.88
2023-04-18T20:31:04.149Z,103239.66
2023-04-18T20:33:33.262Z,103232.22
2023-04-18T20:36:00.989Z,103235.09
2023-04-18T20:38:29.589Z,103243.94
2023-04-18T20:41:00.520Z,103237.97
2023-04-18T20:43:28.354Z,103238.69
2023-04-18T20:45:57.997Z,103240.22
2023-04-18T20:48:25.904Z,103229.53
2023-04-18T20:50:54.971Z,103240.97
2023-04-18T20:53:25.943Z,103237.47
2023-04-18T20:55:53.740Z,103234.63
2023-04-18T20:58:21.522Z,103238.31
2023-04-18T21:00:49.527Z,103233.03
2023-04-18T21:03:17.841Z,103238.47
2023-04-18T21:05:46.183Z,103244.44
2023-04-18T21:08:15.582Z,103243.78
2023-04-18T21:10:43.338Z,103244.81
2023-04-18T21:13:12.561Z,103235.31
2023-04-18T21:15:41.842Z,103234.72
2023-04-18T21:18:09.691Z,103241.50
2023-04-18T21:20:37.565Z,103245.44
2023-04-18T21:23:05.316Z,103239.25
2023-04-18T21:25:34.431Z,103239.88
2023-04-18T21:28:02.371Z,103239.09
2023-04-18T21:30:30.725Z,103231.81
2023-04-18T21:32:58.546Z,103237.81
2023-04-18T21:35:26.491Z,103236.31
2023-04-18T21:37:54.204Z,103233.53
2023-04-18T21:40:22.148Z,103236.53
2023-04-18T21:42:51.896Z,103230.72
2023-04-18T21:45:19.755Z,103234.97
2023-04-18T21:47:47.529Z,103239.78
2023-04-18T21:50:15.268Z,103233.59
2023-04-18T21:52:42.998Z,103233.19
2023-04-18T21:55:11.004Z,103233.75
2023-04-18T21:57:38.726Z,103230.31
2023-04-18T22:00:10.642Z,103236.13
2023-04-18T22:02:38.625Z,103223.31
2023-04-18T22:05:07.574Z,103221.59
2023-04-18T22:07:43.250Z,103227.75
2023-04-18T22:10:18.406Z,103231.88
2023-04-18T22:12:46.220Z,103221.75
2023-04-18T22:15:15.466Z,103229.19
2023-04-18T22:17:43.253Z,103217.75
2023-04-18T22:20:11.353Z,103224.38
2023-04-18T22:22:39.109Z,103226.78
2023-04-18T22:25:11.321Z,103224.38
2023-04-18T22:27:39.617Z,103233.44
2023-04-18T22:30:08.513Z,103230.66
2023-04-18T22:32:37.760Z,103220.16
2023-04-18T22:35:06.611Z,103228.78
2023-04-18T22:37:34.398Z,103221.69
2023-04-18T22:40:02.151Z,103222.47
2023-04-18T22:42:32.115Z,103214.38
2023-04-18T22:45:01.018Z,103227.06
2023-04-18T22:47:28.925Z,103212.47
2023-04-18T22:49:58.029Z,103209.19
2023-04-18T22:52:26.024Z,103209.34
2023-04-18T22:54:53.986Z,103209.88
2023-04-18T22:57:21.799Z,103210.41
2023-04-18T22:59:49.529Z,103206.75
2023-04-18T23:02:17.404Z,103206.94
2023-04-18T23:04:46.039Z,103210.81
2023-04-18T23:07:15.447Z,103208.03
2023-04-18T23:09:43.202Z,103205.72
2023-04-18T23:12:10.972Z,103210.19
2023-04-18T23:14:38.893Z,103202.28
2023-04-18T23:17:06.641Z,103201.34
2023-04-18T23:19:34.354Z,103204.72
2023-04-18T23:22:02.174Z,103205.81
2023-04-18T23:24:31.838Z,103201.34
2023-04-18T23:26:59.588Z,103194.00
2023-04-18T23:29:27.304Z,103191.66
2023-04-18T23:31:55.188Z,103199.53
2023-04-18T23:34:23.128Z,103190.47
2023-04-18T23:36:50.859Z,103190.25
2023-04-18T23:39:18.672Z,103188.13
2023-04-18T23:41:47.768Z,103191.84
2023-04-18T23:44:15.587Z,103182.97
2023-04-18T23:46:43.381Z,103175.25
2023-04-18T23:49:11.181Z,103174.78
2023-04-18T23:51:39.146Z,103161.34
2023-04-18T23:54:07.586Z,103162.47
2023-04-18T23:56:35.706Z,103162.91
2023-04-18T23:59:04.831Z,103159.56
